createdAt,value
2022-12-04T00:02:50.079Z,96752.25
2022-12-04T00:06:57.122Z,96745.22
2022-12-04T00:10:58.862Z,96748.59
2022-12-04T00:19:19.287Z,96737.53
2022-12-04T00:23:22.285Z,96744.72
2022-12-04T00:27:22.476Z,96738.34
2022-12-04T00:31:27.704Z,96725.41
2022-12-04T00:35:29.280Z,96728.16
2022-12-04T00:39:31.974Z,96740.94
2022-12-04T00:43:33.916Z,96727.38
2022-12-04T00:47:34.050Z,96730.31
2022-12-04T00:51:34.289Z,96722.94
2022-12-04T00:55:37.143Z,96720.88
2022-12-04T00:59:37.285Z,96721.25
2022-12-04T01:03:38.159Z,96708.50
2022-12-04T01:07:38.499Z,96701.28
2022-12-04T01:11:41.270Z,96709.72
2022-12-04T01:15:44.045Z,96717.97
2022-12-04T01:19:44.257Z,96710.91
2022-12-04T01:23:45.171Z,96694.56
2022-12-04T01:27:48.138Z,96713.91
2022-12-04T01:31:48.295Z,96717.13
2022-12-04T01:35:56.511Z,96704.31
2022-12-04T01:39:56.808Z,96652.56
2022-12-04T01:44:16.666Z,96691.72
2022-12-04T01:48:28.275Z,96686.34
2022-12-04T01:52:29.770Z,96686.53
2022-12-04T01:56:39.472Z,96683.75
2022-12-04T02:00:42.591Z,96661.13
2022-12-04T02:04:45.318Z,96683.47
2022-12-04T02:08:45.632Z,96675.78
2022-12-04T02:12:54.283Z,96676.22
2022-12-04T02:17:10.090Z,96674.72
2022-12-04T02:21:19.295Z,96670.00
2022-12-04T02:25:32.522Z,96692.00
2022-12-04T02:29:49.659Z,96698.28
2022-12-04T02:33:57.793Z,96709.03
2022-12-04T02:38:06.625Z,96710.56
2022-12-04T02:42:17.726Z,96691.59
2022-12-04T02:46:27.760Z,96698.75
2022-12-04T02:50:29.760Z,96664.34
2022-12-04T02:54:39.333Z,96697.50
2022-12-04T02:58:47.432Z,96698.97
2022-12-04T03:02:58.377Z,96695.72
2022-12-04T03:07:05.115Z,96659.06
2022-12-04T03:11:06.333Z,96687.47
2022-12-04T03:15:12.852Z,96683.09
2022-12-04T03:19:22.768Z,96669.19
2022-12-04T03:23:32.893Z,96634.16
2022-12-04T03:27:44.759Z,96661.06
2022-12-04T03:31:53.416Z,96644.94
2022-12-04T03:36:02.888Z,96655.97
2022-12-04T03:40:13.729Z,96643.34
2022-12-04T03:44:22.735Z,96647.13
2022-12-04T03:48:31.545Z,96634.59
2022-12-04T03:52:45.110Z,96646.00
2022-12-04T03:56:51.971Z,96633.22
2022-12-04T04:00:56.552Z,96624.88
2022-12-04T04:05:01.666Z,96637.13
2022-12-04T04:09:12.382Z,96631.56
2022-12-04T04:13:38.995Z,96631.00
2022-12-04T04:18:04.047Z,96609.25
2022-12-04T04:22:23.834Z,96589.09
2022-12-04T04:26:29.697Z,96587.88
2022-12-04T04:30:34.647Z,96599.63
2022-12-04T04:34:48.808Z,96613.75
2022-12-04T04:39:00.583Z,96596.50
2022-12-04T04:43:12.340Z,96604.25
2022-12-04T04:47:21.630Z,96581.84
2022-12-04T04:51:22.879Z,96612.88
2022-12-04T04:55:25.070Z,96617.09
2022-12-04T04:59:27.778Z,96615.22
2022-12-04T05:03:28.202Z,96589.50
2022-12-04T05:07:28.317Z,96626.84
2022-12-04T05:11:28.552Z,96630.53
2022-12-04T05:15:31.310Z,96609.81
2022-12-04T05:19:48.176Z,96640.28
2022-12-04T05:23:48.584Z,96639.31
2022-12-04T05:27:48.730Z,96642.16
2022-12-04T05:31:51.479Z,96625.91
2022-12-04T05:36:00.493Z,96622.69
2022-12-04T05:40:00.660Z,96641.25
2022-12-04T05:44:00.772Z,96638.84
2022-12-04T05:48:04.882Z,96641.94
2022-12-04T05:52:06.876Z,96644.78
2022-12-04T05:56:08.953Z,96639.16
2022-12-04T06:00:11.639Z,96644.59
2022-12-04T06:04:15.232Z,96650.78
2022-12-04T06:08:15.445Z,96660.22
2022-12-04T06:12:15.603Z,96659.94
2022-12-04T06:16:18.221Z,96663.66
2022-12-04T06:20:21.434Z,96649.75
2022-12-04T06:24:24.558Z,96657.69
2022-12-04T06:28:24.655Z,96667.00
2022-12-04T06:32:24.824Z,96660.84
2022-12-04T06:36:28.182Z,96676.34
2022-12-04T06:40:28.273Z,96663.47
2022-12-04T06:44:28.414Z,96635.72
2022-12-04T06:48:29.402Z,96654.34
2022-12-04T06:52:32.140Z,96666.53
2022-12-04T06:56:35.035Z,96665.25
2022-12-04T07:00:35.303Z,96654.78
2022-12-04T07:04:35.584Z,96661.78
2022-12-04T07:08:38.416Z,96658.13
2022-12-04T07:12:38.477Z,96656.59
2022-12-04T07:16:41.483Z,96663.88
2022-12-04T07:20:43.543Z,96656.44
2022-12-04T07:24:46.370Z,96646.13
2022-12-04T07:28:47.292Z,96633.09
2022-12-04T07:32:47.373Z,96633.50
2022-12-04T07:36:47.431Z,96597.28
2022-12-04T07:40:50.095Z,96627.03
2022-12-04T07:44:50.321Z,96596.22
2022-12-04T07:48:50.486Z,96603.75
2022-12-04T07:52:50.663Z,96633.00
2022-12-04T07:56:53.314Z,96634.50
2022-12-04T08:00:53.489Z,96629.78
2022-12-04T08:04:53.882Z,96632.91
2022-12-04T08:08:55.548Z,96602.06
2022-12-04T08:12:58.207Z,96624.34
2022-12-04T08:16:58.426Z,96629.72
2022-12-04T08:21:05.744Z,96615.78
2022-12-04T08:25:05.970Z,96648.44
2022-12-04T08:29:09.137Z,96648.22
2022-12-04T08:33:09.315Z,96659.38
2022-12-04T08:37:10.350Z,96657.13
2022-12-04T08:41:15.155Z,96643.53
2022-12-04T08:45:18.050Z,96640.09
2022-12-04T08:49:18.228Z,96634.75
2022-12-04T08:53:18.343Z,96654.44
2022-12-04T08:57:18.451Z,96646.19
2022-12-04T09:01:23.998Z,96627.06
2022-12-04T09:05:24.212Z,96646.75
2022-12-04T09:09:24.371Z,96642.13
2022-12-04T09:13:24.622Z,96643.50
2022-12-04T09:17:27.290Z,96632.97
2022-12-04T09:21:28.346Z,96658.09
2022-12-04T09:25:28.465Z,96660.97
2022-12-04T09:29:28.959Z,96633.97
2022-12-04T09:33:32.735Z,96649.56
2022-12-04T09:37:32.857Z,96633.31
2022-12-04T09:42:26.730Z,96648.13
2022-12-04T09:46:34.135Z,96646.34
2022-12-04T09:50:43.610Z,96630.59
2022-12-04T09:54:46.606Z,96622.41
2022-12-04T09:58:53.988Z,96640.00
2022-12-04T10:03:02.062Z,96645.59
2022-12-04T10:07:15.795Z,96584.72
2022-12-04T10:11:27.686Z,96635.06
2022-12-04T10:15:43.847Z,96603.69
2022-12-04T10:19:59.388Z,96595.84
2022-12-04T10:24:31.150Z,96607.75
2022-12-04T10:28:40.211Z,96580.44
2022-12-04T10:32:43.349Z,96589.09
2022-12-04T10:36:50.956Z,96535.44
2022-12-04T10:41:03.876Z,96503.84
2022-12-04T10:50:33.896Z,96374.53
2022-12-04T10:55:30.795Z,96531.09
2022-12-04T11:00:55.222Z,96571.59
2022-12-04T11:06:23.253Z,96297.75
2022-12-04T11:11:13.336Z,96279.59
2022-12-04T11:15:33.817Z,96278.03
2022-12-04T11:20:25.762Z,96554.28
2022-12-04T11:24:51.618Z,96393.50
2022-12-04T11:29:01.469Z,96514.28
2022-12-04T11:33:03.370Z,96479.53
2022-12-04T11:37:04.373Z,96481.72
2022-12-04T11:41:07.086Z,96451.34
2022-12-04T11:45:26.453Z,96516.56
2022-12-04T11:49:30.289Z,96463.38
2022-12-04T11:53:48.288Z,96420.22
2022-12-04T11:58:08.337Z,96521.78
2022-12-04T12:03:02.256Z,96468.69
2022-12-04T12:07:19.424Z,96486.56
2022-12-04T12:11:29.073Z,96504.34
2022-12-04T12:15:44.569Z,96498.97
2022-12-04T12:20:13.523Z,96497.69
2022-12-04T12:24:30.084Z,96414.91
2022-12-04T12:29:02.995Z,96477.03
2022-12-04T12:33:21.188Z,96417.75
2022-12-04T12:37:37.600Z,96431.97
2022-12-04T12:41:45.640Z,96478.34
2022-12-04T12:45:56.783Z,96476.09
2022-12-04T12:50:03.540Z,96467.00
2022-12-04T12:54:20.484Z,96456.13
2022-12-04T12:58:29.379Z,96470.31
2022-12-04T13:02:38.380Z,96474.53
2022-12-04T13:06:43.918Z,96465.53
2022-12-04T13:10:52.751Z,96465.03
2022-12-04T13:14:52.905Z,96467.53
2022-12-04T13:19:04.454Z,96427.66
2022-12-04T13:23:26.879Z,96454.59
2022-12-04T13:27:48.079Z,96412.06
2022-12-04T13:32:02.816Z,96442.53
2022-12-04T13:36:36.741Z,96410.94
2022-12-04T13:40:43.369Z,96455.41
2022-12-04T13:44:46.354Z,96446.00
2022-12-04T13:48:46.619Z,96434.13
2022-12-04T13:52:49.248Z,96442.53
2022-12-04T13:56:52.323Z,96444.31
2022-12-04T14:01:06.280Z,96446.38
2022-12-04T14:05:10.363Z,96431.03
2022-12-04T14:09:24.385Z,96414.66
2022-12-04T14:13:30.919Z,96420.22
2022-12-04T14:17:37.947Z,96445.84
2022-12-04T14:21:46.153Z,96448.16
2022-12-04T14:25:46.741Z,96424.53
2022-12-04T14:29:55.100Z,96430.31
2022-12-04T14:34:02.662Z,96421.34
2022-12-04T14:38:06.697Z,96420.88
2022-12-04T14:42:17.311Z,96396.09
2022-12-04T14:46:29.282Z,96424.06
2022-12-04T14:50:46.206Z,96426.13
2022-12-04T14:55:00.465Z,96427.50
2022-12-04T14:59:07.743Z,96428.25
2022-12-04T15:03:15.328Z,96412.00
2022-12-04T15:07:23.309Z,96412.25
2022-12-04T15:11:42.426Z,96414.22
2022-12-04T15:15:48.897Z,96407.91
2022-12-04T15:19:48.998Z,96411.06
2022-12-04T15:23:53.006Z,96395.25
2022-12-04T15:28:02.176Z,96404.41
2022-12-04T15:32:08.628Z,96380.94
2022-12-04T15:36:15.202Z,96386.22
2022-12-04T15:40:26.828Z,96409.03
2022-12-04T15:44:32.641Z,96409.03
2022-12-04T15:48:34.569Z,96402.09
2022-12-04T15:52:34.955Z,96417.31
2022-12-04T15:56:37.655Z,96427.66
2022-12-04T16:00:42.952Z,96397.06
2022-12-04T16:04:45.562Z,96360.34
2022-12-04T16:08:49.273Z,96441.00
2022-12-04T16:12:56.671Z,96431.75
2022-12-04T16:17:06.545Z,96445.00
2022-12-04T16:21:07.281Z,96456.00
2022-12-04T16:25:08.393Z,96462.25
2022-12-04T16:29:12.536Z,96448.97
2022-12-04T16:33:17.463Z,96393.72
2022-12-04T16:37:21.075Z,96383.91
2022-12-04T16:41:23.535Z,96392.44
2022-12-04T16:45:32.840Z,96466.03
2022-12-04T16:49:34.497Z,96390.19
2022-12-04T16:53:34.689Z,96438.53
2022-12-04T16:57:35.070Z,96379.75
2022-12-04T17:01:44.060Z,96425.63
2022-12-04T17:05:44.240Z,96415.19
2022-12-04T17:09:44.595Z,96448.50
2022-12-04T17:13:45.053Z,96451.03
2022-12-04T17:17:47.824Z,96444.22
2022-12-04T17:21:47.895Z,96456.47
2022-12-04T17:25:47.992Z,96444.31
2022-12-04T17:29:48.136Z,96443.41
2022-12-04T17:33:51.739Z,96434.97
2022-12-04T17:37:51.863Z,96421.91
2022-12-04T17:41:51.929Z,96423.25
2022-12-04T17:45:52.002Z,96418.16
2022-12-04T17:49:55.180Z,96429.34
2022-12-04T17:53:56.593Z,96436.31
2022-12-04T17:57:57.100Z,96436.97
2022-12-04T18:01:57.165Z,96439.09
2022-12-04T18:06:00.836Z,96374.78
2022-12-04T18:10:01.303Z,96414.34
2022-12-04T18:14:11.520Z,96423.31
2022-12-04T18:18:12.248Z,96427.28
2022-12-04T18:22:15.070Z,96440.72
2022-12-04T18:26:17.614Z,96439.06
2022-12-04T18:30:18.292Z,96445.06
2022-12-04T18:34:18.536Z,96448.03
2022-12-04T18:38:21.267Z,96442.84
2022-12-04T18:42:21.430Z,96445.47
2022-12-04T18:46:23.094Z,96439.44
2022-12-04T18:50:23.326Z,96437.78
2022-12-04T18:54:26.972Z,96446.88
2022-12-04T18:58:27.340Z,96435.63
2022-12-04T19:02:27.830Z,96428.59
2022-12-04T19:06:33.320Z,96419.09
2022-12-04T19:10:36.308Z,96458.09
2022-12-04T19:14:37.924Z,96457.72
2022-12-04T19:18:39.384Z,96457.44
2022-12-04T19:22:40.254Z,96433.13
2022-12-04T19:26:43.865Z,96453.25
2022-12-04T19:30:44.401Z,96457.88
2022-12-04T19:34:44.663Z,96457.53
2022-12-04T19:38:45.465Z,96495.44
2022-12-04T19:42:48.470Z,96466.13
2022-12-04T19:46:48.715Z,96471.31
2022-12-04T19:50:48.898Z,96465.03
2022-12-04T19:54:49.139Z,96472.91
2022-12-04T19:58:51.871Z,96472.09
2022-12-04T20:02:52.149Z,96475.91
2022-12-04T20:06:53.266Z,96462.06
2022-12-04T20:10:53.556Z,96475.94
2022-12-04T20:14:56.303Z,96485.53
2022-12-04T20:18:58.003Z,96489.69
2022-12-04T20:22:58.927Z,96479.63
2022-12-04T20:26:59.204Z,96456.66
2022-12-04T20:31:03.308Z,96444.91
2022-12-04T20:35:03.820Z,96486.97
2022-12-04T20:39:04.105Z,96495.00
2022-12-04T20:43:04.369Z,96469.94
2022-12-04T20:47:07.091Z,96483.34
2022-12-04T20:51:07.356Z,96497.03
2022-12-04T20:55:10.435Z,96487.84
2022-12-04T20:59:14.670Z,96503.53
2022-12-04T21:03:17.898Z,96476.09
2022-12-04T21:07:18.034Z,96508.59
2022-12-04T21:11:18.329Z,96490.59
2022-12-04T21:15:31.273Z,96492.78
2022-12-04T21:19:34.062Z,96507.44
2022-12-04T21:23:36.062Z,96488.38
2022-12-04T21:27:36.255Z,96522.44
2022-12-04T21:31:37.608Z,96506.63
2022-12-04T21:35:42.723Z,96512.69
2022-12-04T21:39:43.255Z,96531.53
2022-12-04T21:43:43.782Z,96536.00
2022-12-04T21:47:44.324Z,96526.22
2022-12-04T21:52:02.842Z,96539.19
2022-12-04T21:56:03.025Z,96539.84
2022-12-04T22:00:04.172Z,96528.91
2022-12-04T22:04:05.235Z,96542.03
2022-12-04T22:08:08.456Z,96510.88
2022-12-04T22:12:33.324Z,96519.66
2022-12-04T22:16:31.067Z,96552.16
2022-12-04T22:20:31.404Z,96552.44
2022-12-04T22:24:34.250Z,96542.22
2022-12-04T22:28:34.441Z,96555.56
2022-12-04T22:32:34.615Z,96552.41
2022-12-04T22:36:36.093Z,96570.97
2022-12-04T22:40:40.696Z,96558.47
2022-12-04T22:44:40.772Z,96542.44
2022-12-04T22:48:42.691Z,96539.84
2022-12-04T22:52:42.799Z,96547.38
2022-12-04T22:56:46.094Z,96566.09
2022-12-04T23:00:46.247Z,96566.88
2022-12-04T23:04:46.356Z,96573.50
2022-12-04T23:08:47.511Z,96553.25
2022-12-04T23:12:50.234Z,96567.09
2022-12-04T23:16:51.157Z,96565.44
2022-12-04T23:20:51.398Z,96577.66
2022-12-04T23:24:51.685Z,96533.31
2022-12-04T23:28:55.123Z,96565.56
2022-12-04T23:32:55.408Z,96603.41
2022-12-04T23:36:55.540Z,96595.91
2022-12-04T23:41:04.057Z,96599.03
2022-12-04T23:45:07.982Z,96577.97
2022-12-04T23:49:08.047Z,96580.56
2022-12-04T23:53:08.224Z,96598.22
2022-12-04T23:57:08.495Z,96573.06
